Time;durP1;ratioP1;P1;durP2;ratioP2;P2;SDS_P1;SDS_P2;PMS_P1;PMS_P2;Temp;Humidity;BMP_temperature;BMP_pressure;BME280_temperature;BME280_humidity;BME280_pressure;Samples;Min_cycle;Max_cycle;Signal;HPM_P1;HPM_P2
2022/07/07 10:50:30;;;;;;;2.38;1.15;;;20.20;69.60;;;;;;6246604;23;20163;-89
2022/07/07 10:53:00;;;;;;;1.20;1.00;;;20.30;69.70;;;;;;6220364;23;20137;-89
2022/07/07 10:55:52;;;;;;;1.20;1.10;;;20.30;69.70;;;;;;6220325;23;20265;-92
2022/07/07 10:59:13;;;;;;;1.20;1.10;;;20.30;69.70;;;;;;6221273;23;20232;-89
2022/07/07 11:01:59;;;;;;;1.00;1.00;;;20.30;69.70;;;;;;6247209;23;20153;-89
2022/07/07 11:04:48;;;;;;;1.20;1.10;;;20.20;69.80;;;;;;6196354;23;20196;-90
2022/07/07 11:07:26;;;;;;;0.93;0.93;;;20.20;69.90;;;;;;6195026;23;20216;-89
2022/07/07 11:10:01;;;;;;;0.93;0.90;;;20.30;69.80;;;;;;6130608;23;20165;-90
2022/07/07 11:12:39;;;;;;;1.20;1.10;;;20.30;69.90;;;;;;6105821;23;20194;-89
2022/07/07 11:15:35;;;;;;;1.30;1.17;;;20.30;70.70;;;;;;6105197;23;20179;-89
2022/07/07 11:18:10;;;;;;;1.67;1.00;;;20.30;69.90;;;;;;6104754;23;20155;-90
2022/07/07 11:20:51;;;;;;;1.20;1.10;;;20.20;69.80;;;;;;6105316;23;20155;-90
2022/07/07 11:23:38;;;;;;;1.20;1.10;;;20.20;69.80;;;;;;6105534;23;20166;-89
2022/07/07 11:26:05;;;;;;;1.20;1.10;;;20.20;69.90;;;;;;6108272;23;20290;-90
2022/07/07 11:28:31;;;;;;;1.10;1.00;;;20.30;69.80;;;;;;6129560;23;20587;-90
2022/07/07 11:31:03;;;;;;;1.05;0.98;;;20.20;69.80;;;;;;6066199;23;20173;-88
2022/07/07 11:33:29;;;;;;;0.95;0.95;;;20.30;69.80;;;;;;6018672;23;20165;-89
2022/07/07 21:55:01;;;;;;;1.60;1.50;;;20.60;69.70;;;;;;6247561;23;20260;-90
2022/07/07 21:57:27;;;;;;;1.50;1.40;;;20.60;69.70;;;;;;6196690;23;20153;-91
2022/07/07 21:59:53;;;;;;;1.60;1.50;;;20.60;69.70;;;;;;6196097;23;20584;-90
2022/07/07 22:02:19;;;;;;;1.65;1.40;;;20.60;69.60;;;;;;6195825;23;20158;-91
2022/07/07 22:07:33;;;;;;;1.70;1.60;;;20.60;69.60;;;;;;6224932;23;20137;-92
2022/07/07 22:09:59;;;;;;;1.63;1.52;;;20.70;69.60;;;;;;6196660;23;20189;-89
2022/07/07 22:12:25;;;;;;;1.70;1.60;;;20.70;69.60;;;;;;6195853;23;20130;-91
2022/07/07 22:14:51;;;;;;;1.77;1.52;;;20.70;69.60;;;;;;6195865;23;20180;-90
2022/07/07 22:17:20;;;;;;;1.88;1.77;;;20.60;69.50;;;;;;6195400;23;20154;-89
2022/07/07 22:19:48;;;;;;;1.77;1.67;;;20.70;69.60;;;;;;6195797;23;20142;-89
2022/07/07 22:22:14;;;;;;;1.52;1.42;;;20.70;69.50;;;;;;6196467;23;20146;-90
2022/07/07 22:24:43;;;;;;;1.70;1.60;;;20.70;69.40;;;;;;6195925;23;20464;-90
2022/07/07 22:27:09;;;;;;;1.60;1.50;;;20.70;69.30;;;;;;6189611;23;20150;-91
2022/07/07 22:29:35;;;;;;;1.63;1.52;;;20.70;69.30;;;;;;6189454;23;20142;-90
2022/07/07 22:32:04;;;;;;;1.60;1.50;;;20.70;69.20;;;;;;6190271;23;20146;-92
2022/07/07 22:34:35;;;;;;;1.55;1.45;;;20.70;69.20;;;;;;6189703;23;20146;-92
2022/07/07 22:37:03;;;;;;;1.80;1.70;;;20.70;69.20;;;;;;6189395;23;20147;-92
2022/07/07 22:39:30;;;;;;;1.60;1.50;;;20.70;69.30;;;;;;6189478;23;20209;-89
2022/07/07 22:41:57;;;;;;;1.60;1.50;;;20.70;69.30;;;;;;6164529;23;20138;-92
2022/07/07 22:44:26;;;;;;;1.80;1.70;;;20.70;69.30;;;;;;6189292;23;20180;-90
2022/07/07 22:46:55;;;;;;;3.50;1.70;;;20.70;69.30;;;;;;6165095;23;20154;-89
2022/07/07 22:49:21;;;;;;;1.60;1.50;;;20.70;69.20;;;;;;6164629;23;20168;-92
2022/07/07 22:51:47;;;;;;;2.08;1.63;;;20.70;69.30;;;;;;6189557;23;20182;-90
2022/07/07 22:54:13;;;;;;;2.20;1.67;;;20.70;69.30;;;;;;6187665;23;20512;-91
2022/07/07 22:56:39;;;;;;;1.35;1.25;;;20.70;69.30;;;;;;6194318;23;20209;-89
2022/07/07 22:59:06;;;;;;;1.63;1.52;;;20.70;69.20;;;;;;6194571;23;20146;-90
2022/07/07 23:01:33;;;;;;;2.03;1.90;;;20.70;69.20;;;;;;6194510;23;20152;-91
2022/07/07 23:03:59;;;;;;;1.60;1.50;;;20.70;69.20;;;;;;6194362;23;20161;-89
2022/07/07 23:06:29;;;;;;;1.70;1.60;;;20.70;69.20;;;;;;6219424;23;20479;-90
2022/07/07 23:08:56;;;;;;;1.70;1.60;;;20.70;69.10;;;;;;6194016;23;20157;-90
2022/07/07 23:11:22;;;;;;;1.90;1.80;;;20.70;69.20;;;;;;6193844;23;20149;-89
2022/07/07 23:13:48;;;;;;;1.73;1.63;;;20.70;69.20;;;;;;6194091;23;20535;-92
2022/07/07 23:16:13;;;;;;;2.00;1.80;;;20.70;69.20;;;;;;6194018;23;20177;-91
2022/07/07 23:18:41;;;;;;;1.63;1.52;;;20.70;69.10;;;;;;6219215;23;20188;-90
2022/07/07 23:21:08;;;;;;;1.77;1.67;;;20.70;69.20;;;;;;6194214;23;20145;-90
2022/07/07 23:23:33;;;;;;;2.08;1.98;;;20.70;69.20;;;;;;6206134;22;20154;-92
2022/07/07 23:25:59;;;;;;;1.92;1.60;;;20.70;69.10;;;;;;6225095;22;20208;-90
2022/07/07 23:28:25;;;;;;;1.70;1.60;;;20.80;69.20;;;;;;6225144;22;20206;-89
2022/07/07 23:30:51;;;;;;;1.80;1.70;;;20.70;69.10;;;;;;6225474;22;20129;-92
2022/07/07 23:33:16;;;;;;;1.70;1.60;;;20.70;69.10;;;;;;6200038;22;20156;-89
2022/07/07 23:35:43;;;;;;;1.90;1.80;;;20.60;69.00;;;;;;6225149;22;20559;-91
2022/07/07 23:38:10;;;;;;;1.98;1.80;;;20.70;69.10;;;;;;6225551;22;20129;-89
2022/07/07 23:40:35;;;;;;;1.77;1.67;;;20.70;69.10;;;;;;6225765;22;20199;-93
2022/07/07 23:43:05;;;;;;;1.77;1.67;;;20.80;69.20;;;;;;6225174;22;20125;-90
2022/07/07 23:45:31;;;;;;;1.60;1.50;;;20.70;69.00;;;;;;6225013;22;20148;-89
2022/07/07 23:47:57;;;;;;;2.15;1.80;;;20.70;69.00;;;;;;6251102;22;20223;-89
2022/07/07 23:50:27;;;;;;;1.67;1.58;;;20.70;69.00;;;;;;6225306;22;20572;-91
2022/07/07 23:52:53;;;;;;;1.80;1.70;;;20.70;68.90;;;;;;6219045;23;20189;-91
2022/07/07 23:55:20;;;;;;;1.88;1.77;;;20.80;69.10;;;;;;6195201;23;20207;-91
2022/07/07 23:57:46;;;;;;;2.45;1.90;;;20.70;69.00;;;;;;6220148;23;20126;-89
